Time;durP1;ratioP1;P1;durP2;ratioP2;P2;SDS_P1;SDS_P2;PMS_P1;PMS_P2;Temp;Humidity;BMP_temperature;BMP_pressure;BME280_temperature;BME280_humidity;BME280_pressure;Samples;Min_cycle;Max_cycle;Signal;HPM_P1;HPM_P2
2022/04/21 00:01:38;;;;;;;12.43;7.03;;;;;;;-145.18;100.00;47385.16;5031578;28;20045;-71
2022/04/21 00:04:03;;;;;;;14.63;6.57;;;;;;;-145.18;100.00;47371.47;5049236;28;20570;-71
2022/04/21 00:06:29;;;;;;;10.50;6.63;;;;;;;-145.18;100.00;47375.38;5049454;28;20464;-71
2022/04/21 00:08:54;;;;;;;16.77;7.47;;;;;;;-145.18;100.00;47406.63;5049622;28;20045;-71
2022/04/21 00:11:21;;;;;;;16.40;7.33;;;;;;;-145.18;100.00;47396.88;5049156;28;20044;-72
2022/04/21 00:13:46;;;;;;;10.43;7.00;;;;;;;-145.18;100.00;47379.28;5049803;28;20033;-71
2022/04/21 00:16:12;;;;;;;17.43;7.90;;;;;;;-145.18;100.00;47379.28;5031551;28;20285;-71
2022/04/21 00:18:38;;;;;;;14.03;6.80;;;;;;;-145.18;100.00;47400.78;5049171;28;20056;-71
2022/04/21 00:21:04;;;;;;;9.53;6.77;;;;;;;-145.18;100.00;47400.78;5049389;28;20290;-71
2022/04/21 00:23:30;;;;;;;12.63;6.67;;;;;;;-145.18;100.00;47391.00;5049342;28;20112;-71
2022/04/21 00:26:01;;;;;;;11.43;6.97;;;;;;;-145.18;100.00;47406.63;5049589;28;20718;-71
2022/04/21 00:28:28;;;;;;;14.80;6.83;;;;;;;-145.18;100.00;47408.59;5049435;28;20488;-71
2022/04/21 00:30:54;;;;;;;16.77;7.17;;;;;;;-145.18;100.00;47404.69;5049494;28;20305;-71
2022/04/21 00:33:20;;;;;;;10.67;6.97;;;;;;;-145.18;100.00;47400.78;5048979;28;20284;-72
2022/04/21 00:35:45;;;;;;;11.13;7.53;;;;;;;-145.18;100.00;47412.50;5031895;28;20274;-71
2022/04/21 00:38:11;;;;;;;13.57;7.03;;;;;;;-145.18;100.00;47422.28;5048821;28;20033;-71
2022/04/21 00:40:36;;;;;;;14.43;7.30;;;;;;;-145.18;100.00;47432.03;5049215;28;20048;-72
2022/04/21 00:43:02;;;;;;;17.60;7.67;;;;;;;-145.18;100.00;47437.91;5048770;28;20067;-72
2022/04/21 00:45:29;;;;;;;10.83;6.80;;;;;;;-145.18;100.00;47418.38;5052636;28;20437;-72
2022/04/21 00:47:56;;;;;;;11.10;6.40;;;;;;;-145.18;100.00;47443.75;5052782;28;20103;-72
2022/04/21 00:50:39;;;;;;;13.83;7.33;;;;;;;-145.18;100.00;47422.28;5052879;28;20752;-72
2022/04/21 00:53:07;;;;;;;17.83;7.20;;;;;;;-145.18;100.00;47422.28;5052515;28;20735;-72
2022/04/21 00:55:32;;;;;;;14.93;7.40;;;;;;;-145.18;100.00;47422.28;5053224;28;20320;-71
2022/04/21 00:58:01;;;;;;;11.50;7.27;;;;;;;-145.18;100.00;47418.38;5052341;28;20262;-72
2022/04/21 01:00:26;;;;;;;13.17;7.60;;;;;;;-145.18;100.00;47449.63;5052835;28;20033;-71
2022/04/21 01:02:55;;;;;;;17.63;7.83;;;;;;;-145.18;100.00;47453.53;5052418;28;20818;-71
2022/04/21 01:05:31;;;;;;;11.80;7.60;;;;;;;-145.18;100.00;47488.69;5052068;28;20179;-71
2022/04/21 01:08:00;;;;;;;;;;;;;;;-145.18;100.00;47494.56;5052923;28;20272;-71
2022/04/21 01:10:27;;;;;;;14.50;7.13;;;;;;;-145.18;100.00;47480.88;5052684;28;19913;-71
2022/04/21 01:12:53;;;;;;;16.50;8.40;;;;;;;-145.18;100.00;47465.25;5051965;28;20274;-72
2022/04/21 01:15:18;;;;;;;11.87;6.63;;;;;;;-145.18;100.00;47447.66;5052247;28;20412;-72
2022/04/21 01:17:45;;;;;;;14.03;7.80;;;;;;;-145.18;100.00;47467.22;5034405;28;20111;-71
2022/04/21 01:20:14;;;;;;;13.57;7.33;;;;;;;-145.18;100.00;47455.47;5052172;28;20451;-71
2022/04/21 01:22:39;;;;;;;12.20;7.70;;;;;;;-145.18;100.00;47457.44;5051795;28;20325;-72
2022/04/21 01:25:06;;;;;;;11.43;7.17;;;;;;;-145.18;100.00;47449.63;5051958;28;20290;-72
2022/04/21 01:27:33;;;;;;;15.43;7.70;;;;;;;-145.18;100.00;47445.72;5052032;28;20032;-72
2022/04/21 01:30:00;;;;;;;11.87;7.20;;;;;;;-145.18;100.00;47461.34;5051899;28;20270;-71
2022/04/21 01:32:26;;;;;;;13.60;7.40;;;;;;;-145.18;100.00;47439.84;5052044;28;20273;-72
2022/04/21 01:34:51;;;;;;;12.43;7.40;;;;;;;-145.18;100.00;47488.69;5052269;28;20642;-72
2022/04/21 01:42:45;;;;;;;9.73;6.77;;;;;;;-145.18;100.00;47461.34;5051873;28;20253;-72
2022/04/21 01:45:10;;;;;;;13.07;7.40;;;;;;;-145.18;100.00;47459.41;5051807;28;20266;-71
2022/04/21 01:47:35;;;;;;;13.63;7.27;;;;;;;-145.18;100.00;47461.34;5033543;28;20041;-72
2022/04/21 01:50:07;;;;;;;10.93;6.60;;;;;;;-145.18;100.00;47478.94;5051740;28;20045;-72
2022/04/21 01:52:33;;;;;;;15.77;6.93;;;;;;;-145.18;100.00;47471.13;5051743;28;20037;-72
2022/04/21 01:54:58;;;;;;;12.60;7.53;;;;;;;-145.18;100.00;47476.97;5033384;28;20369;-72
2022/04/21 01:57:24;;;;;;;12.40;6.90;;;;;;;-145.18;100.00;47476.97;5051193;28;20362;-72
2022/04/21 01:59:51;;;;;;;14.20;7.20;;;;;;;-145.18;100.00;47476.97;5051888;28;20037;-72
2022/04/21 02:02:17;;;;;;;14.63;7.60;;;;;;;-145.18;100.00;47480.88;5307453;23;20057;-72
2022/04/21 02:04:42;;;;;;;12.50;7.40;;;;;;;-145.18;100.00;47480.88;5025618;28;20302;-72
2022/04/21 02:07:08;;;;;;;12.20;7.60;;;;;;;-145.18;100.00;47484.78;5030527;28;20094;-72
2022/04/21 02:09:33;;;;;;;14.37;6.90;;;;;;;-145.18;100.00;47476.97;5031242;28;20068;-72
2022/04/21 02:11:58;;;;;;;11.90;7.43;;;;;;;-145.18;100.00;47482.84;5030556;28;20057;-72
2022/04/21 02:14:24;;;;;;;13.93;7.27;;;;;;;-145.18;100.00;47498.47;5031510;28;20537;-72
2022/04/21 02:16:49;;;;;;;11.57;7.53;;;;;;;-145.18;100.00;47490.66;5030895;28;20617;-72
2022/04/21 02:19:14;;;;;;;14.43;7.17;;;;;;;-145.18;100.00;47500.41;5031169;28;20041;-72
2022/04/21 02:21:40;;;;;;;9.67;7.33;;;;;;;-145.18;100.00;47508.22;5031371;28;20109;-72
2022/04/21 02:24:06;;;;;;;10.23;7.17;;;;;;;-145.18;100.00;47480.88;5030834;28;20026;-72
2022/04/21 02:26:31;;;;;;;13.40;7.90;;;;;;;-145.18;100.00;47469.16;5030935;28;20065;-71
2022/04/21 02:28:56;;;;;;;15.53;8.20;;;;;;;-145.18;100.00;47502.38;5030473;28;20686;-72
2022/04/21 02:31:22;;;;;;;12.47;7.97;;;;;;;-145.18;100.00;47476.97;5030846;28;20127;-71
2022/04/21 02:33:47;;;;;;;12.87;7.30;;;;;;;-145.18;100.00;47488.69;5025162;28;20044;-71
2022/04/21 02:36:13;;;;;;;10.57;7.53;;;;;;;-145.18;100.00;47467.22;5010909;28;20057;-71
2022/04/21 02:38:38;;;;;;;13.07;7.27;;;;;;;-145.18;100.00;47434.00;5011080;28;20114;-71
2022/04/21 02:41:04;;;;;;;14.17;7.63;;;;;;;-145.18;100.00;47398.81;5010779;28;20081;-72
2022/04/21 02:43:29;;;;;;;11.63;8.00;;;;;;;-145.18;100.00;47392.97;5010617;28;20060;-71
2022/04/21 02:45:55;;;;;;;11.17;7.37;;;;;;;-145.18;100.00;47381.25;5011044;28;20030;-71
2022/04/21 02:48:20;;;;;;;14.93;7.57;;;;;;;-145.18;100.00;47328.50;5010389;28;20169;-71
2022/04/21 02:50:48;;;;;;;13.83;7.63;;;;;;;-145.18;100.00;47238.63;5010828;28;20739;-71
2022/04/21 02:53:14;;;;;;;12.37;7.60;;;;;;;-145.18;100.00;47291.38;5025280;28;20026;-71
2022/04/21 02:58:44;;;;;;;11.87;8.27;;;;;;;-145.18;100.00;46877.22;4949107;28;20043;-72
2022/04/21 03:01:09;;;;;;;11.50;7.93;;;;;;;-145.18;100.00;46797.13;4949892;28;20364;-71
2022/04/21 03:03:34;;;;;;;16.00;8.40;;;;;;;-145.18;100.00;46769.78;4977087;28;20049;-71
2022/04/21 03:06:00;;;;;;;16.47;8.30;;;;;;;-145.18;100.00;46785.41;5010113;28;20061;-71
2022/04/21 03:08:25;;;;;;;14.70;9.00;;;;;;;-145.18;100.00;46742.44;5009828;28;20042;-72
2022/04/21 03:10:51;;;;;;;14.67;8.87;;;;;;;-145.18;100.00;46758.06;5010388;28;20038;-72
2022/04/21 03:13:16;;;;;;;13.90;9.50;;;;;;;-145.18;100.00;46724.84;5010260;28;20040;-72
2022/04/21 03:15:41;;;;;;;17.47;9.20;;;;;;;-145.18;100.00;46707.28;5010629;28;20112;-71
2022/04/21 03:18:07;;;;;;;16.23;8.97;;;;;;;-145.18;100.00;46707.28;5009684;28;20443;-72
2022/04/21 03:26:00;;;;;;;14.07;8.47;;;;;;;-145.18;100.00;46668.22;5010678;28;20259;-72
2022/04/21 03:28:25;;;;;;;13.07;9.07;;;;;;;-145.18;100.00;46648.69;5009610;28;20303;-72
2022/04/21 03:30:51;;;;;;;15.10;8.50;;;;;;;-145.18;100.00;46646.72;5010195;28;20044;-72
2022/04/21 03:33:16;;;;;;;15.33;10.07;;;;;;;-145.18;100.00;46660.41;5009679;28;20034;-71
2022/04/21 03:35:41;;;;;;;15.73;10.00;;;;;;;-145.18;100.00;46636.94;5009098;28;20184;-72
2022/04/21 03:38:07;;;;;;;16.83;9.50;;;;;;;-145.18;100.00;46629.13;5009628;28;20088;-72
2022/04/21 03:40:32;;;;;;;13.70;8.97;;;;;;;-145.18;100.00;46638.91;5009923;28;20066;-71
2022/04/21 03:42:58;;;;;;;15.23;9.50;;;;;;;-145.18;100.00;46635.00;5009230;28;20412;-72
2022/04/21 03:45:23;;;;;;;16.33;9.47;;;;;;;-145.18;100.00;46646.72;5010079;28;20113;-71
2022/04/21 03:47:48;;;;;;;20.40;9.17;;;;;;;-145.18;100.00;46629.13;5009507;28;20735;-71
2022/04/21 03:50:14;;;;;;;18.63;9.87;;;;;;;-145.18;100.00;46629.13;5010085;28;20462;-72
2022/04/21 03:52:39;;;;;;;17.50;9.63;;;;;;;-145.18;100.00;46636.94;5009562;28;20041;-71
2022/04/21 03:55:05;;;;;;;17.23;10.17;;;;;;;-145.18;100.00;46629.13;5009618;28;20073;-71
2022/04/21 03:57:30;;;;;;;16.03;9.77;;;;;;;-145.18;100.00;46621.31;5009730;28;20048;-71
2022/04/21 03:59:56;;;;;;;20.47;9.30;;;;;;;-145.18;100.00;46621.31;5010039;28;20049;-71
2022/04/21 04:02:21;;;;;;;13.47;8.80;;;;;;;-145.18;100.00;46623.28;5014435;28;20034;-71
2022/04/21 04:04:46;;;;;;;18.43;10.17;;;;;;;-145.18;100.00;46617.41;5031121;28;20088;-72
2022/04/21 04:12:40;;;;;;;13.87;9.00;;;;;;;-145.18;100.00;46601.78;5027856;28;20301;-72
2022/04/21 04:15:07;;;;;;;14.80;10.23;;;;;;;-145.18;100.00;46621.31;5027544;28;20973;-72
2022/04/21 04:17:32;;;;;;;16.20;10.67;;;;;;;-145.18;100.00;46615.47;5029221;28;20777;-71
2022/04/21 04:19:59;;;;;;;20.93;10.10;;;;;;;-145.18;100.00;46599.84;5033310;28;20279;-72
2022/04/21 04:22:24;;;;;;;15.50;9.67;;;;;;;-145.18;100.00;46590.06;5033132;28;20033;-71
2022/04/21 04:24:55;;;;;;;15.43;9.60;;;;;;;-145.18;100.00;46599.84;5033199;28;20294;-72
2022/04/21 04:27:22;;;;;;;15.13;9.87;;;;;;;-145.18;100.00;46592.03;5031913;28;20489;-71
2022/04/21 04:29:47;;;;;;;17.20;10.30;;;;;;;-145.18;100.00;46586.16;5031898;28;20730;-72
2022/04/21 04:32:14;;;;;;;16.43;10.00;;;;;;;-145.18;100.00;46584.22;5032842;28;20305;-71
2022/04/21 04:34:40;;;;;;;12.87;9.43;;;;;;;-145.18;100.00;46588.13;5033050;28;20037;-72
2022/04/21 04:37:05;;;;;;;15.93;9.97;;;;;;;-145.18;100.00;46595.94;5033179;28;20298;-72
2022/04/21 04:39:31;;;;;;;19.47;9.50;;;;;;;-145.18;100.00;46582.25;5032558;28;20041;-72
2022/04/21 04:44:40;;;;;;;20.17;10.33;;;;;;;-145.18;100.00;46582.25;5033216;28;20040;-72
2022/04/21 04:47:05;;;;;;;15.10;9.40;;;;;;;-145.18;100.00;46592.03;5033019;28;20358;-71
2022/04/21 04:49:31;;;;;;;14.07;9.37;;;;;;;-145.18;100.00;46590.06;5032849;28;20029;-72
2022/04/21 04:51:56;;;;;;;14.57;10.20;;;;;;;-145.18;100.00;46588.13;5032666;28;20029;-71
2022/04/21 04:54:21;;;;;;;15.73;10.00;;;;;;;-145.18;100.00;46597.88;5032520;28;20470;-72
2022/04/21 04:56:48;;;;;;;14.33;9.63;;;;;;;-145.18;100.00;46590.06;5032634;28;20696;-71
2022/04/21 04:59:13;;;;;;;16.77;9.97;;;;;;;-145.18;100.00;46578.34;5032368;28;20034;-71
2022/04/21 05:01:41;;;;;;;16.20;9.87;;;;;;;-145.18;100.00;46582.25;5032736;28;20308;-71
2022/04/21 05:04:08;;;;;;;36.20;11.47;;;;;;;-145.18;100.00;46574.44;5031774;28;20057;-72
2022/04/21 05:06:43;;;;;;;16.13;9.47;;;;;;;-145.18;100.00;46576.41;5032289;28;20755;-72
2022/04/21 05:09:14;;;;;;;13.00;8.90;;;;;;;-145.18;100.00;46566.63;5031269;28;20688;-72
2022/04/21 05:11:41;;;;;;;14.10;8.97;;;;;;;-145.18;100.00;46592.03;5032495;28;20037;-72
2022/04/21 05:14:07;;;;;;;15.57;9.73;;;;;;;-145.18;100.00;46572.50;5032079;28;20686;-72
2022/04/21 05:16:36;;;;;;;21.43;8.93;;;;;;;-145.18;100.00;46588.13;5031947;28;20278;-71
2022/04/21 05:19:02;;;;;;;17.10;10.33;;;;;;;-145.18;100.00;46593.97;5030913;28;20259;-72
2022/04/21 05:21:29;;;;;;;17.23;10.07;;;;;;;-145.18;100.00;46572.50;5032418;28;20324;-72
2022/04/21 05:23:57;;;;;;;15.90;10.20;;;;;;;-145.18;100.00;46582.25;5031690;28;20266;-72
2022/04/21 05:26:24;;;;;;;15.47;9.70;;;;;;;-145.18;100.00;46590.06;5032532;28;20258;-72
2022/04/21 05:28:49;;;;;;;14.77;9.50;;;;;;;-145.18;100.00;46599.84;5031135;28;20274;-72
2022/04/21 05:31:16;;;;;;;15.70;9.40;;;;;;;-145.18;100.00;46607.66;5031251;28;20267;-72
2022/04/21 05:33:42;;;;;;;16.03;9.40;;;;;;;-145.18;100.00;46615.47;5031835;28;20029;-72
2022/04/21 05:36:08;;;;;;;16.20;8.80;;;;;;;-145.18;100.00;46611.56;5032187;28;20309;-72
2022/04/21 05:38:34;;;;;;;13.33;8.33;;;;;;;-145.18;100.00;46627.19;5031543;28;20080;-72
2022/04/21 05:41:00;;;;;;;16.50;9.07;;;;;;;-145.18;100.00;46627.19;5031556;28;20296;-72
2022/04/21 05:43:30;;;;;;;17.27;9.57;;;;;;;-145.18;100.00;46677.97;5031453;28;20267;-72
2022/04/21 05:45:56;;;;;;;17.57;9.47;;;;;;;-145.18;100.00;46658.44;5031911;28;20228;-72
2022/04/21 05:48:22;;;;;;;13.30;9.40;;;;;;;-145.18;100.00;46685.78;5031622;28;20405;-72
2022/04/21 05:50:50;;;;;;;15.77;9.13;;;;;;;-145.18;100.00;46685.78;5031791;28;20551;-72
2022/04/21 05:53:24;;;;;;;13.90;9.00;;;;;;;-145.18;100.00;46654.53;5031133;28;20068;-72
2022/04/21 05:55:51;;;;;;;14.10;8.70;;;;;;;-145.18;100.00;46689.69;5031924;28;20293;-72
2022/04/21 05:58:17;;;;;;;15.83;9.03;;;;;;;-145.18;100.00;46683.84;5031066;28;20279;-72
2022/04/21 06:00:43;;;;;;;13.93;8.37;;;;;;;-145.18;100.00;46672.13;5031771;28;20291;-72
2022/04/21 06:03:11;;;;;;;18.23;9.67;;;;;;;-145.18;100.00;46695.56;5012797;28;20287;-72
2022/04/21 06:05:36;;;;;;;13.53;9.13;;;;;;;-145.18;100.00;46689.69;5031656;28;20041;-72
2022/04/21 06:08:02;;;;;;;14.07;8.97;;;;;;;-145.18;100.00;46668.22;5030989;28;20274;-72
2022/04/21 06:10:27;;;;;;;14.10;8.30;;;;;;;-145.18;100.00;46713.13;5031468;28;20033;-72
2022/04/21 06:12:53;;;;;;;13.23;7.77;;;;;;;-145.18;100.00;46697.50;5013106;28;20528;-72
2022/04/21 06:15:19;;;;;;;17.57;9.50;;;;;;;-145.18;100.00;46677.97;5031935;28;20035;-72
2022/04/21 06:17:45;;;;;;;10.43;8.10;;;;;;;-145.18;100.00;46709.22;5031211;28;20049;-72
2022/04/21 06:20:10;;;;;;;14.83;8.37;;;;;;;-145.18;100.00;46697.50;5029751;28;20453;-72
2022/04/21 06:22:36;;;;;;;17.60;8.80;;;;;;;-145.18;100.00;46713.13;5031047;28;20275;-72
2022/04/21 06:25:02;;;;;;;12.83;8.90;;;;;;;-145.18;100.00;46685.78;5030766;28;20068;-72
2022/04/21 06:27:27;;;;;;;16.47;9.17;;;;;;;-145.18;100.00;46695.56;5031347;28;20045;-72
2022/04/21 06:29:53;;;;;;;16.00;9.70;;;;;;;-145.18;100.00;46713.13;5030499;28;20712;-72
2022/04/21 06:32:19;;;;;;;14.80;9.60;;;;;;;-145.18;100.00;46722.91;5031206;28;20034;-72
2022/04/21 06:34:44;;;;;;;13.33;9.97;;;;;;;-145.18;100.00;46715.09;5030419;28;20135;-72
2022/04/21 06:37:10;;;;;;;15.17;10.30;;;;;;;-145.18;100.00;46742.44;5030749;28;20439;-72
2022/04/21 06:39:35;;;;;;;18.17;8.87;;;;;;;-145.18;100.00;46750.25;5030788;28;20044;-72
2022/04/21 06:42:01;;;;;;;12.53;8.23;;;;;;;-145.18;100.00;46750.25;5030779;28;20109;-72
2022/04/21 06:49:54;;;;;;;14.07;8.00;;;;;;;-145.18;100.00;47008.09;5010549;28;20314;-72
2022/04/21 06:52:19;;;;;;;14.60;7.70;;;;;;;-145.18;100.00;47170.25;5011087;28;20268;-72
2022/04/21 06:54:45;;;;;;;12.20;8.03;;;;;;;-145.18;100.00;47181.97;5010432;28;20117;-72
2022/04/21 06:57:10;;;;;;;17.23;7.93;;;;;;;-145.18;100.00;46978.81;5010729;28;20030;-72
2022/04/21 06:59:36;;;;;;;11.27;7.17;;;;;;;-145.18;100.00;47025.69;5010428;28;20131;-72
2022/04/21 07:02:01;;;;;;;11.67;7.37;;;;;;;-145.18;100.00;47392.97;5010489;28;20030;-72
2022/04/21 07:04:28;;;;;;;15.73;8.13;;;;;;;-145.18;100.00;47332.41;5010130;28;20056;-72
2022/04/21 07:06:53;;;;;;;13.00;7.90;;;;;;;-145.18;100.00;47377.34;5010593;28;20148;-73
2022/04/21 07:09:19;;;;;;;16.30;8.17;;;;;;;-145.18;100.00;47281.59;5010465;28;20267;-72
2022/04/21 07:11:44;;;;;;;15.03;7.73;;;;;;;-145.18;100.00;47240.56;5010500;28;20041;-73
2022/04/21 07:14:10;;;;;;;10.33;7.27;;;;;;;-145.18;100.00;47385.16;5010053;28;20065;-72
2022/04/21 07:16:35;;;;;;;10.23;7.00;;;;;;;-145.18;100.00;47338.25;5009366;28;20033;-72
2022/04/21 07:19:01;;;;;;;10.97;6.87;;;;;;;-145.18;100.00;47342.16;5009787;28;20266;-73
2022/04/21 07:21:26;;;;;;;12.83;7.50;;;;;;;-145.18;100.00;47357.78;5010394;28;20033;-72
2022/04/21 07:23:51;;;;;;;14.53;7.47;;;;;;;-145.18;100.00;47349.97;5009798;28;20033;-73
2022/04/21 07:26:17;;;;;;;13.97;7.50;;;;;;;-145.18;100.00;47338.25;5010665;28;20040;-72
2022/04/21 07:28:44;;;;;;;12.60;7.70;;;;;;;-145.18;100.00;47359.75;5010151;28;20041;-72
2022/04/21 07:31:10;;;;;;;12.17;7.30;;;;;;;-145.18;100.00;47324.59;5010296;28;20052;-72
2022/04/21 07:33:36;;;;;;;9.83;6.77;;;;;;;-145.18;100.00;47299.19;5009549;28;20271;-72
2022/04/21 07:36:01;;;;;;;10.63;6.60;;;;;;;-145.18;100.00;47328.50;5010223;28;20038;-73
2022/04/21 07:38:26;;;;;;;12.17;7.27;;;;;;;-145.18;100.00;47281.59;5009858;28;20040;-73
2022/04/21 07:40:53;;;;;;;14.27;6.90;;;;;;;-145.18;100.00;47320.69;5009646;28;20062;-73
2022/04/21 07:43:19;;;;;;;9.90;7.10;;;;;;;-145.18;100.00;47305.06;5009596;28;20038;-73
2022/04/21 07:45:45;;;;;;;12.37;7.27;;;;;;;-145.18;100.00;47308.97;5008976;28;20329;-73
2022/04/21 07:48:11;;;;;;;10.53;7.17;;;;;;;-145.18;100.00;47322.63;5008401;28;20560;-73
2022/04/21 07:50:36;;;;;;;12.90;6.63;;;;;;;-145.18;100.00;47293.31;5010321;28;20038;-73
2022/04/21 07:53:15;;;;;;;8.60;6.43;;;;;;;-145.18;100.00;47279.66;5009126;28;20061;-73
2022/04/21 07:55:42;;;;;;;11.13;6.77;;;;;;;-145.18;100.00;47262.06;5010066;28;20033;-73
2022/04/21 07:58:08;;;;;;;11.30;7.07;;;;;;;-145.18;100.00;47260.13;5009467;28;20275;-73
2022/04/21 08:00:36;;;;;;;11.67;6.40;;;;;;;-145.18;100.00;47269.88;5010075;28;20294;-73
2022/04/21 08:03:03;;;;;;;13.60;7.00;;;;;;;-145.18;100.00;47252.31;5009020;28;20049;-73
2022/04/21 08:05:29;;;;;;;11.73;6.33;;;;;;;-145.18;100.00;47242.53;5009904;28;20271;-73
2022/04/21 08:07:54;;;;;;;10.90;6.33;;;;;;;-145.18;100.00;47258.16;5009651;28;20291;-73
2022/04/21 08:10:20;;;;;;;8.87;6.30;;;;;;;-145.18;100.00;47232.75;4991964;28;20752;-73
2022/04/21 08:12:51;;;;;;;7.70;6.10;;;;;;;-145.18;100.00;47244.50;5009786;28;20479;-73
2022/04/21 08:15:23;;;;;;;15.53;6.00;;;;;;;-145.18;100.00;47221.03;5010002;28;20263;-73
2022/04/21 08:17:50;;;;;;;12.77;6.37;;;;;;;-145.18;100.00;47226.91;5010204;28;20724;-73
2022/04/21 08:20:16;;;;;;;11.13;5.97;;;;;;;-145.18;100.00;47205.41;5009479;28;20458;-74
2022/04/21 08:22:41;;;;;;;7.40;5.70;;;;;;;-145.18;100.00;47221.03;5008539;28;20149;-73
2022/04/21 08:33:19;;;;;;;7.07;5.47;;;;;;;-145.18;100.00;47180.03;5009767;28;20544;-74
2022/04/21 08:35:46;;;;;;;11.57;5.87;;;;;;;-145.18;100.00;47199.56;5009898;28;20280;-73
2022/04/21 08:38:12;;;;;;;9.77;6.13;;;;;;;-145.18;100.00;47189.78;5007758;28;20037;-74
2022/04/21 08:40:50;;;;;;;12.53;6.30;;;;;;;-145.18;100.00;47183.94;5009807;28;20111;-73
2022/04/21 08:43:16;;;;;;;9.37;6.07;;;;;;;-145.18;100.00;47195.66;5009140;28;20030;-74
2022/04/21 08:45:45;;;;;;;10.10;5.40;;;;;;;-145.18;100.00;47170.25;5009971;28;20036;-74
2022/04/21 08:48:12;;;;;;;10.57;5.37;;;;;;;-145.18;100.00;47181.97;5009154;28;20041;-74
2022/04/21 08:50:39;;;;;;;10.97;5.47;;;;;;;-145.18;100.00;47178.06;5009543;28;20503;-74
2022/04/21 08:53:09;;;;;;;12.13;6.30;;;;;;;-145.18;100.00;47172.19;5009426;28;20038;-74
2022/04/21 08:55:35;;;;;;;10.70;5.47;;;;;;;-145.18;100.00;47168.28;5009675;28;20061;-74
2022/04/21 08:58:01;;;;;;;6.87;5.13;;;;;;;-145.18;100.00;47160.47;5009500;28;20034;-74
2022/04/21 09:00:27;;;;;;;10.17;5.50;;;;;;;-145.18;100.00;47166.34;5009483;28;20068;-74
2022/04/21 09:02:53;;;;;;;8.43;5.80;;;;;;;-145.18;100.00;47164.38;5007324;28;20495;-74
2022/04/21 09:05:22;;;;;;;12.37;5.97;;;;;;;-145.18;100.00;47176.09;5010595;28;20045;-74
2022/04/21 09:07:51;;;;;;;10.93;5.43;;;;;;;-145.18;100.00;47162.44;5013126;28;20050;-75
2022/04/21 09:10:18;;;;;;;7.90;4.53;;;;;;;-145.18;100.00;47144.84;5012802;28;20112;-74
2022/04/21 09:12:44;;;;;;;7.90;5.20;;;;;;;-145.18;100.00;47154.63;5012745;28;20030;-74
2022/04/21 09:15:14;;;;;;;7.63;4.97;;;;;;;-145.18;100.00;47142.91;5012554;28;20100;-74
2022/04/21 09:17:48;;;;;;;8.33;5.10;;;;;;;-145.18;100.00;47137.03;5012876;28;20039;-75
2022/04/21 09:20:18;;;;;;;9.47;5.40;;;;;;;-145.18;100.00;47152.66;5012323;28;20108;-74
2022/04/21 09:23:05;;;;;;;7.70;4.60;;;;;;;-145.18;100.00;47140.94;5012654;28;20030;-74
2022/04/21 09:25:48;;;;;;;7.63;5.20;;;;;;;-145.18;100.00;47129.22;5012320;28;20034;-74
2022/04/21 09:28:25;;;;;;;6.57;4.43;;;;;;;-145.18;100.00;47135.09;5012147;28;20033;-74
2022/04/21 09:30:52;;;;;;;9.70;4.93;;;;;;;-145.18;100.00;47148.75;5012603;28;20030;-74
2022/04/21 09:33:40;;;;;;;8.77;5.10;;;;;;;-145.18;100.00;47133.13;5012167;28;20567;-74
2022/04/21 09:36:07;;;;;;;9.57;4.67;;;;;;;-145.18;100.00;47131.19;5012315;28;20030;-74
2022/04/21 09:38:36;;;;;;;7.43;4.27;;;;;;;-145.18;100.00;47139.00;5012120;28;20121;-75
2022/04/21 09:41:22;;;;;;;9.00;4.77;;;;;;;-145.18;100.00;47115.56;5012159;28;20033;-74
2022/04/21 09:43:49;;;;;;;6.63;4.67;;;;;;;-145.18;100.00;47115.56;5012109;28;20038;-74
2022/04/21 09:46:22;;;;;;;9.50;4.70;;;;;;;-145.18;100.00;47125.31;5012133;28;20038;-74
2022/04/21 09:48:54;;;;;;;6.70;3.53;;;;;;;-145.18;100.00;47127.28;5011998;28;20120;-74
2022/04/21 09:51:25;;;;;;;7.13;3.83;;;;;;;-145.18;100.00;47119.47;5012509;28;20057;-74
2022/04/21 09:53:59;;;;;;;5.63;3.43;;;;;;;-145.18;100.00;47127.28;5011336;28;20026;-74
2022/04/21 09:56:39;;;;;;;7.67;3.77;;;;;;;-145.18;100.00;47115.56;5012139;28;20389;-74
2022/04/21 09:59:08;;;;;;;12.37;4.17;;;;;;;-145.18;100.00;47109.69;5011385;28;20402;-74
2022/04/21 10:01:38;;;;;;;5.77;3.13;;;;;;;-145.18;100.00;47094.06;5010570;28;20430;-74
2022/04/21 10:04:08;;;;;;;4.87;3.30;;;;;;;-145.18;100.00;47099.91;5011350;28;20058;-74
2022/04/21 10:06:37;;;;;;;7.07;3.23;;;;;;;-145.18;100.00;47094.06;5012125;28;20379;-74
2022/04/21 10:09:02;;;;;;;3.63;2.80;;;;;;;-145.18;100.00;47103.81;5011115;28;20018;-74
2022/04/21 10:11:28;;;;;;;7.10;3.03;;;;;;;-145.18;100.00;47097.97;5011659;28;20409;-74
2022/04/21 10:13:56;;;;;;;4.60;2.73;;;;;;;-145.18;100.00;47103.81;5011297;28;20029;-75
2022/04/21 10:16:23;;;;;;;7.07;3.20;;;;;;;-145.18;100.00;47105.78;5011676;28;20054;-74
2022/04/21 10:18:52;;;;;;;7.57;3.30;;;;;;;-145.18;100.00;47103.81;5011255;28;20034;-74
2022/04/21 10:21:48;;;;;;;4.73;2.47;;;;;;;-145.18;100.00;47097.97;5011508;28;20133;-74
2022/04/21 10:24:14;;;;;;;3.93;2.37;;;;;;;-145.18;100.00;47082.34;5011441;28;20038;-74
2022/04/21 10:26:41;;;;;;;3.50;2.30;;;;;;;-145.18;100.00;47074.53;5011713;28;20638;-74
2022/04/21 10:29:17;;;;;;;4.20;2.70;;;;;;;-145.18;100.00;47074.53;5010913;28;20037;-74
2022/04/21 10:31:52;;;;;;;4.00;2.40;;;;;;;-145.18;100.00;47068.66;5010279;28;20069;-74
2022/04/21 10:34:32;;;;;;;3.63;1.90;;;;;;;-145.18;100.00;47060.84;5010856;28;20018;-74
2022/04/21 10:37:10;;;;;;;3.10;1.83;;;;;;;-145.18;97.44;47066.72;5011384;28;20558;-74
2022/04/21 10:39:36;;;;;;;5.17;1.60;;;;;;;-145.18;95.34;47074.53;5010946;28;20026;-74
2022/04/21 10:42:16;;;;;;;3.73;1.80;;;;;;;-145.18;94.81;47051.09;5011064;28;20037;-74
2022/04/21 10:44:46;;;;;;;3.33;1.43;;;;;;;-145.18;93.28;47070.63;5011005;28;20030;-74
2022/04/21 10:47:39;;;;;;;1.90;1.37;;;;;;;-145.18;88.05;47066.72;5010776;28;20069;-74
2022/04/21 10:50:12;;;;;;;2.83;1.70;;;;;;;-145.18;85.28;47074.53;5010634;28;20033;-74
2022/04/21 10:57:50;;;;;;;3.80;1.60;;;;;;;-145.18;84.91;47066.72;5011174;28;20401;-74
2022/04/21 11:00:30;;;;;;;3.30;1.70;;;;;;;-145.18;85.21;47055.00;5010738;28;20040;-74
2022/04/21 11:03:01;;;;;;;8.10;1.90;;;;;;;-145.18;85.43;47041.31;5010583;28;20052;-74
2022/04/21 11:05:31;;;;;;;2.73;1.80;;;;;;;-145.18;83.99;47045.22;5010510;28;20029;-75
2022/04/21 11:07:59;;;;;;;4.77;1.87;;;;;;;-145.18;84.89;47043.28;5010752;28;20498;-74
2022/04/21 11:10:39;;;;;;;5.83;1.73;;;;;;;-145.18;83.47;47033.50;5010549;28;20397;-74
2022/04/21 11:13:13;;;;;;;4.73;2.30;;;;;;;-145.18;80.11;47064.75;5010627;28;20026;-74
2022/04/21 11:15:44;;;;;;;5.07;1.80;;;;;;;-145.18;81.22;47051.09;5010465;28;20026;-74
2022/04/21 11:18:17;;;;;;;4.17;2.20;;;;;;;-145.18;83.76;47051.09;5010479;28;20025;-74
2022/04/21 11:20:45;;;;;;;3.03;1.70;;;;;;;-145.18;83.75;47041.31;5010320;28;20034;-74
2022/04/21 11:23:21;;;;;;;3.53;2.10;;;;;;;-145.18;84.87;47041.31;5010300;28;20500;-74
2022/04/21 11:25:47;;;;;;;5.07;2.60;;;;;;;-145.18;81.06;47051.09;5010342;28;20120;-74
2022/04/21 11:28:13;;;;;;;4.90;2.60;;;;;;;-145.18;84.13;47056.94;5008370;28;20525;-74
2022/04/21 11:30:39;;;;;;;2.90;2.07;;;;;;;-145.18;80.15;47047.19;5010240;28;20041;-74
2022/04/21 11:33:10;;;;;;;4.80;2.30;;;;;;;-145.18;82.21;47058.91;5010348;28;20092;-74
2022/04/21 11:35:35;;;;;;;4.00;2.53;;;;;;;-145.18;84.42;47027.63;5010060;28;20437;-74
2022/04/21 11:38:01;;;;;;;5.60;2.50;;;;;;;-145.18;80.92;47029.59;5010505;28;20041;-74
2022/04/21 11:40:26;;;;;;;5.10;2.80;;;;;;;-145.18;81.49;47035.44;5009842;28;20092;-75
2022/04/21 11:42:53;;;;;;;4.27;2.47;;;;;;;-145.18;79.43;47043.28;5010154;28;20550;-74
2022/04/21 11:45:26;;;;;;;4.67;2.73;;;;;;;-145.18;81.57;47029.59;5010363;28;20076;-75
2022/04/21 11:47:52;;;;;;;4.57;2.67;;;;;;;-145.18;83.99;47013.97;5010316;28;20036;-75